• Join FlightAware (Why Join?)
  • Login
  • US Flag 
11:06PM EST


 

Airport Tracker/Info


-or-


 

Live Flight TrackerFlight Track Log ✈ AAL1884 ✈ 28-Apr-2013 ✈ KDFW - KATL

Flight Track Log - Related Links

Times and Time Zones

All times are in EDT time to prevent confusion due to time zone crossing. See the AAL1884 flight status page for this flight to view local times or setup timezone preferences in your user account.

Time Position Orientation Groundspeed Altitude Reporting Facility
EDT Latitude Longitude Course Direction KTS MPH feet Rate Location/Type
04:29PM 32.8667 -97.0333 65° Northeast 164 189 1,900  Level Dallas / Fort Worth TRACON
04:30PM 32.8000 -97.0333 180° South 224 258 4,400 1,920 Climbing Dallas / Fort Worth TRACON
04:31PM 32.6833 -96.8316 90° East  Level FlightAware Approximate
04:31PM 32.7333 -97.0333 180° South 261 300 6,400  Level Dallas / Fort Worth TRACON
04:32PM 32.7155 -96.7037 68° East  Level FlightAware Approximate
04:32PM 32.6833 -96.9667 132° Southeast 286 329 9,000  Level Dallas / Fort Worth TRACON
04:33PM 32.7574 -96.5778 68° East  Level FlightAware Approximate
04:34PM 32.8036 -96.4541 65° Northeast  Level FlightAware Approximate
04:34PM 32.7064 -96.7764 82° East 327 376 10,000  Level Fort Worth Center
04:35PM 32.7475 -96.6625 67° East 369 425 11,600 2,280 Climbing Fort Worth Center
04:36PM 32.7844 -96.5511 68° East 368 423 14,600 2,820 Climbing Fort Worth Center
04:37PM 32.8233 -96.4394 67° East 362 417 17,300 2,340 Climbing Fort Worth Center
04:38PM 32.8581 -96.3375 68° East 356 410 19,300 2,040 Climbing Fort Worth Center
04:39PM 32.8653 -96.2014 86° East 362 417 21,400 1,800 Climbing Fort Worth Center
04:40PM 32.8681 -96.0853 88° East 382 440 22,900 1,500 Climbing Fort Worth Center
04:41PM 32.8728 -95.9392 88° East 394 453 24,400 1,440 Climbing Fort Worth Center
04:42PM 32.8775 -95.8056 88° East 401 461 25,800 1,320 Climbing Fort Worth Center
04:43PM 32.8817 -95.6619 88° East 411 473 27,100 1,200 Climbing Fort Worth Center
04:44PM 32.8797 -95.5186 91° East 425 489 28,300 1,140 Climbing Fort Worth Center
04:45PM 32.8858 -95.3750 87° East 434 499 29,400 960 Climbing Fort Worth Center
04:46PM 32.8961 -95.2411 85° East 440 506 30,300 840 Climbing Fort Worth Center
04:47PM 32.9206 -95.0919 79° East 446 513 31,100 900 Climbing Fort Worth Center
04:48PM 32.9447 -94.9406 79° East 451 519 32,200 900 Climbing Fort Worth Center
04:49PM 32.9667 -94.7889 80° East 451 519 33,000 360 Climbing Fort Worth Center
04:50PM 32.9908 -94.6394 79° East 451 519 33,000  Level Fort Worth Center
04:51PM 33.0125 -94.4903 80° East 451 519 33,000  Level Fort Worth Center
04:52PM 33.0317 -94.3408 81° East 451 519 33,000  Level Fort Worth Center
04:53PM 33.0425 -94.1869 85° East 451 519 33,000  Level Fort Worth Center
04:54PM 33.0281 -94.0339 96° East 451 519 33,000  Level Fort Worth Center
04:55PM 33.0114 -93.8808 97° East 462 532 33,000  Level Fort Worth Center
04:56PM 32.9964 -93.7278 97° East 462 532 33,000  Level Fort Worth Center
04:57PM 32.9792 -93.5703 97° East 467 537 33,000  Level Fort Worth Center
04:58PM 32.9661 -93.4172 96° East 467 537 33,000  Level Fort Worth Center
04:59PM 32.9506 -93.2619 97° East 467 537 33,000  Level Fort Worth Center
05:00PM 32.9331 -93.1069 98° East 467 537 33,000  Level Fort Worth Center
05:01PM 32.9150 -92.9544 98° East 467 537 33,000  Level Fort Worth Center
05:02PM 32.8992 -92.7992 97° East 462 532 33,000  Level Fort Worth Center
05:03PM 32.8808 -92.6444 98° East 462 532 33,000  Level Fort Worth Center
05:04PM 32.8664 -92.4869 96° East 468 539 33,000 300 Level Fort Worth Center
05:06PM 32.8181 -92.1272 99° East 461 531 34,000 300 Climbing Memphis Center
05:07PM 32.7953 -91.9686 100° East 473 544 34,000  Level Memphis Center
05:08PM 32.7806 -91.8128 96° East 473 544 34,000  Level Memphis Center
05:09PM 32.7592 -91.6542 99° East 479 551 34,000  Level Memphis Center
05:10PM 32.7419 -91.5108 98° East 485 558 34,000  Level Memphis Center
05:11PM 32.7203 -91.3525 99° East 485 558 34,000  Level Memphis Center
05:12PM 32.7025 -91.1942 98° East 485 558 34,000  Level Memphis Center
05:13PM 32.6828 -91.0336 98° East 485 558 34,000  Level Memphis Center
05:14PM 32.6625 -90.8756 99° East 485 558 34,000  Level Memphis Center
05:15PM 32.6422 -90.7175 99° East 485 558 34,000  Level Memphis Center
05:16PM 32.6197 -90.5619 100° East 485 558 34,000  Level Memphis Center
05:17PM 32.6008 -90.3992 98° East 485 558 34,000  Level Memphis Center
05:18PM 32.5781 -90.2439 100° East 485 558 34,000  Level Memphis Center
05:19PM 32.5567 -90.0789 99° East 485 558 34,000  Level Memphis Center
05:20PM 32.5333 -89.9211 100° East 485 558 34,000  Level Memphis Center
05:21PM 32.5117 -89.7414 98° East 490 564 34,000  Level Memphis Center
05:22PM 32.4608 -89.5917 112° Southeast 481 554 34,000  Level Memphis Center
05:23PM 32.3600 -89.5064 144° Southeast 445 512 34,000  Level Memphis Center
05:24PM 32.2428 -89.4683 165° South 420 483 34,000 -60 Level Memphis Center
05:25PM 32.1256 -89.4153 159° South 434 499 33,900 -300 Descending Memphis Center
05:26PM 32.0514 -89.2886 125° Southeast 437 503 33,400 -480 Descending Memphis Center
05:27PM 32.0750 -89.1292 80° East 411 473 33,000 -240 Descending Memphis Center
05:28PM 32.1319 -88.9933 64° Northeast 417 480 33,000  Level Memphis Center
05:29PM 32.1931 -88.8525 63° Northeast 446 513 33,000  Level Memphis Center
05:30PM 32.2561 -88.7114 62° Northeast 459 528 33,000  Level Memphis Center
05:32PM 32.3481 -88.5108 61° Northeast 460 529 33,000  Level Atlanta Center
05:33PM 32.4094 -88.3689 63° Northeast 466 536 33,000  Level Atlanta Center
05:34PM 32.4506 -88.2108 73° East 466 536 33,000  Level Atlanta Center
05:35PM 32.4700 -88.0592 81° East 455 524 33,000  Level Atlanta Center
05:36PM 32.4933 -87.9175 79° East 470 541 33,000  Level Atlanta Center
05:37PM 32.5294 -87.7661 74° East 476 548 33,000  Level Atlanta Center
05:38PM 32.5611 -87.6147 76° East 476 548 33,000  Level Atlanta Center
05:39PM 32.5925 -87.4633 76° East 471 542 33,000  Level Atlanta Center
05:40PM 32.6258 -87.3117 75° East 471 542 33,000 -120 Level Atlanta Center
05:41PM 32.6547 -87.1622 77° East 471 542 32,800 -900 Descending Atlanta Center
05:42PM 32.6897 -87.0106 75° East 471 542 31,200 -1,500 Descending Atlanta Center
05:43PM 32.7203 -86.8608 76° East 461 531 29,900 -1,140 Descending Atlanta Center
05:44PM 32.7486 -86.7136 77° East 461 531 29,000 -840 Descending Atlanta Center
05:45PM 32.7369 -86.5750 96° East 429 494 28,300 -840 Descending Atlanta Center
05:46PM 32.7042 -86.4481 107° East 405 466 27,400 -660 Descending Atlanta Center
05:47PM 32.6731 -86.3189 106° East 410 472 27,000 -600 Descending Atlanta Center
05:48PM 32.6422 -86.1875 106° East 410 472 26,300 -900 Descending Atlanta Center
05:49PM 32.6089 -86.0533 106° East 405 466 25,300 -1,020 Descending Atlanta Center
05:50PM 32.5794 -85.9294 106° East 394 453 24,300 -660 Descending Atlanta Center
05:51PM 32.5500 -85.8106 106° East 384 442 24,000 -180 Descending Atlanta Center
05:52PM 32.5203 -85.6894 106° East 384 442 24,000 -240 Level Atlanta Center
05:53PM 32.5136 -85.5661 94° East 369 425 23,600 -840 Descending Atlanta Center
05:54PM 32.5878 -85.4761 46° Northeast 337 388 22,400 -1,560 Descending Atlanta Center
05:55PM 32.6825 -85.3986 35° Northeast 356 410 20,500 -2,040 Descending Atlanta Center
05:56PM 32.7772 -85.3186 35° Northeast 386 444 18,400 -2,040 Descending Atlanta Center
05:57PM 32.8678 -85.2408 36° Northeast 401 461 16,500 -1,980 Descending Atlanta Center
05:58PM 32.9583 -85.1653 35° Northeast 401 461 14,500 -1,740 Descending Atlanta Center
05:59PM 33.0361 -85.1019 34° Northeast 389 448 13,000 -1,260 Descending Atlanta Center
06:00PM 33.1181 -85.0308 36° Northeast 371 427 12,000 -540 Descending Atlanta Center
06:01PM 33.1939 -84.9622 37° Northeast 357 411 12,000 -600 Level Atlanta Center
06:02PM 33.2817 -84.9283 18° North 318 366 10,800 -1,320 Descending Atlanta Center
06:03PM 33.3694 -84.9219 North 318 366 9,400 -1,380 Descending Atlanta Center
06:04PM 33.4614 -84.9128 North 306 352 8,100 -840 Descending Atlanta Center
06:05PM 33.5408 -84.9036 North 293 337 7,800 -600 Descending Atlanta Center
06:06PM 33.6222 -84.8869 10° North 293 337 7,000 -600 Descending Atlanta Center
06:08PM 33.6317 -84.7300 86° East 201 231 6,000 -540 Descending Atlanta Center